Time;durP1;ratioP1;P1;durP2;ratioP2;P2;SDS_P1;SDS_P2;PMS_P1;PMS_P2;Temp;Humidity;BMP_temperature;BMP_pressure;BME280_temperature;BME280_humidity;BME280_pressure;Samples;Min_cycle;Max_cycle;Signal;HPM_P1;HPM_P2
2021/11/17 02:28:15;;;;;;;27.07;11.50;;;4.20;92.60;;;;;;5054986;28;20198;-87
2021/11/17 02:31:00;;;;;;;27.23;11.73;;;4.10;92.70;;;;;;5036947;28;20283;-87
2021/11/17 02:33:56;;;;;;;23.73;10.50;;;4.10;92.80;;;;;;5054897;28;20248;-89
2021/11/17 02:36:39;;;;;;;29.40;12.23;;;4.10;92.90;;;;;;5036591;28;20242;-86
2021/11/17 02:39:26;;;;;;;27.87;11.83;;;4.10;92.70;;;;;;5037057;28;20171;-88
2021/11/17 02:41:59;;;;;;;25.47;13.23;;;4.10;92.50;;;;;;5036698;28;20164;-86
2021/11/17 02:44:46;;;;;;;28.57;12.10;;;4.10;92.50;;;;;;5020257;28;20200;-87
2021/11/17 02:47:21;;;;;;;26.20;12.47;;;4.20;92.50;;;;;;5004831;28;20160;-88
2021/11/17 02:50:09;;;;;;;31.03;13.27;;;4.10;92.60;;;;;;5055221;28;20254;-88
2021/11/17 02:53:02;;;;;;;31.33;13.60;;;4.10;92.60;;;;;;5037330;28;20157;-87
2021/11/17 02:55:28;;;;;;;35.00;13.17;;;4.10;92.70;;;;;;5036458;28;20224;-88
2021/11/17 02:58:16;;;;;;;28.03;12.90;;;4.10;92.50;;;;;;5054232;28;20725;-88
2021/11/17 03:01:12;;;;;;;28.90;13.50;;;4.10;92.60;;;;;;5021371;28;20254;-87
2021/11/17 03:03:50;;;;;;;32.73;13.70;;;4.00;92.60;;;;;;5036071;28;20198;-87
2021/11/17 03:06:24;;;;;;;30.37;14.70;;;4.10;92.70;;;;;;5036608;28;20152;-87
2021/11/17 03:09:14;;;;;;;29.90;13.40;;;4.00;92.50;;;;;;5054071;28;20612;-89
2021/11/17 03:11:58;;;;;;;33.10;13.17;;;4.10;92.50;;;;;;5036740;28;20220;-88
2021/11/17 03:14:32;;;;;;;32.20;13.80;;;4.00;92.40;;;;;;5019749;28;20219;-87
2021/11/17 03:17:35;;;;;;;33.20;14.00;;;4.10;92.40;;;;;;5035975;28;20233;-88
2021/11/17 03:20:17;;;;;;;28.80;12.50;;;4.10;92.50;;;;;;5035919;28;20176;-88
2021/11/17 03:23:20;;;;;;;31.70;13.47;;;4.10;92.70;;;;;;5036528;28;20218;-88
2021/11/17 03:26:06;;;;;;;34.80;13.20;;;4.10;92.80;;;;;;5019579;28;20191;-89
2021/11/17 03:29:10;;;;;;;32.23;13.17;;;4.10;92.90;;;;;;5019274;28;20179;-88
2021/11/17 03:32:06;;;;;;;29.10;12.47;;;4.10;92.70;;;;;;4976027;28;20262;-87
2021/11/17 03:34:50;;;;;;;29.63;12.43;;;4.20;92.70;;;;;;5014724;28;20232;-88
2021/11/17 03:37:41;;;;;;;31.07;12.33;;;4.20;92.60;;;;;;5035711;28;20165;-88
2021/11/17 03:40:39;;;;;;;27.03;11.50;;;4.10;92.50;;;;;;5019730;28;20262;-86
2021/11/17 03:43:18;;;;;;;28.13;11.93;;;4.10;92.50;;;;;;5038639;28;20164;-86
2021/11/17 03:45:44;;;;;;;29.90;10.77;;;4.10;92.40;;;;;;5019483;28;20196;-89
2021/11/17 03:48:21;;;;;;;27.10;12.43;;;4.10;92.30;;;;;;5037898;28;20525;-88
2021/11/17 03:50:56;;;;;;;28.40;13.83;;;4.10;92.30;;;;;;5039495;28;20640;-88
2021/11/17 03:53:50;;;;;;;33.93;13.20;;;4.10;92.30;;;;;;5039120;28;20178;-88
2021/11/17 03:56:24;;;;;;;30.77;13.77;;;4.10;92.20;;;;;;5024931;28;20207;-87
2021/11/17 03:59:15;;;;;;;30.33;14.20;;;4.20;92.10;;;;;;5057415;28;20205;-89
2021/11/17 04:01:55;;;;;;;36.73;13.37;;;4.20;92.00;;;;;;5039147;28;20214;-87
2021/11/17 04:04:27;;;;;;;28.70;13.40;;;4.20;92.00;;;;;;5038823;28;20188;-88
2021/11/17 04:07:05;;;;;;;25.33;12.40;;;4.20;92.10;;;;;;5039129;28;20251;-89
2021/11/17 04:10:04;;;;;;;25.90;9.63;;;4.20;92.30;;;;;;5038682;28;20175;-88
2021/11/17 04:12:37;;;;;;;25.57;10.87;;;4.10;92.20;;;;;;5025095;28;20169;-85
2021/11/17 04:15:31;;;;;;;30.07;12.77;;;4.20;92.10;;;;;;5039122;28;20200;-86
2021/11/17 04:18:26;;;;;;;28.13;12.70;;;4.20;92.30;;;;;;5038979;28;20175;-86
2021/11/17 04:21:11;;;;;;;25.30;12.10;;;4.10;92.20;;;;;;5023295;28;20570;-89
2021/11/17 04:23:52;;;;;;;24.97;13.23;;;4.10;92.10;;;;;;5007254;28;20322;-87
2021/11/17 04:26:32;;;;;;;24.90;11.77;;;4.10;92.00;;;;;;5022155;28;20175;-87
2021/11/17 04:28:57;;;;;;;27.17;12.57;;;4.10;92.10;;;;;;5022099;28;20164;-88
2021/11/17 04:31:35;;;;;;;27.20;12.93;;;4.10;92.10;;;;;;5056065;28;20180;-86
2021/11/17 04:34:03;;;;;;;25.93;12.73;;;4.20;92.20;;;;;;5055985;28;20195;-86
2021/11/17 04:36:38;;;;;;;26.93;13.47;;;4.20;92.20;;;;;;5038131;28;20192;-86
2021/11/17 04:39:17;;;;;;;30.33;13.20;;;4.20;92.40;;;;;;5037939;28;20589;-88
2021/11/17 04:41:45;;;;;;;35.03;14.43;;;4.20;92.60;;;;;;5038191;28;20156;-89
2021/11/17 04:44:26;;;;;;;26.63;13.03;;;4.20;92.70;;;;;;5055740;28;20188;-89
2021/11/17 04:47:17;;;;;;;27.60;13.43;;;4.20;92.80;;;;;;5021372;28;20165;-85
2021/11/17 04:49:52;;;;;;;30.03;13.27;;;4.20;92.90;;;;;;5039501;28;20212;-88
2021/11/17 04:52:42;;;;;;;27.33;12.67;;;4.10;92.90;;;;;;5038129;28;20197;-88
2021/11/17 04:55:34;;;;;;;28.13;13.10;;;4.20;92.90;;;;;;5037515;28;20688;-87
2021/11/17 04:58:50;;;;;;;29.70;13.27;;;4.10;92.90;;;;;;5021100;28;20174;-85
2021/11/17 05:01:16;;;;;;;24.53;12.37;;;4.10;92.90;;;;;;5033243;28;20255;-85
2021/11/17 05:03:50;;;;;;;35.80;15.27;;;4.10;93.00;;;;;;5037307;28;20200;-86
2021/11/17 05:06:41;;;;;;;33.23;14.63;;;4.10;93.00;;;;;;5037335;28;20175;-86
2021/11/17 05:09:43;;;;;;;33.60;13.87;;;4.10;93.00;;;;;;5022866;28;20156;-86
2021/11/17 05:12:21;;;;;;;28.53;14.60;;;4.10;93.00;;;;;;5037102;28;20174;-88
2021/11/17 05:15:14;;;;;;;30.60;12.93;;;4.10;93.00;;;;;;5037030;28;20199;-87
2021/11/17 05:18:24;;;;;;;36.37;14.73;;;4.10;92.90;;;;;;5023177;28;20605;-85
2021/11/17 05:21:20;;;;;;;31.73;14.33;;;4.10;92.90;;;;;;5033149;28;20533;-87
2021/11/17 05:24:14;;;;;;;33.50;13.93;;;4.20;92.90;;;;;;5022566;28;20691;-86
2021/11/17 05:26:59;;;;;;;33.60;13.90;;;4.10;93.00;;;;;;5037152;28;20156;-86
2021/11/17 05:29:43;;;;;;;26.13;12.67;;;4.20;93.10;;;;;;5054687;28;20175;-87
2021/11/17 05:32:23;;;;;;;34.07;16.60;;;4.20;93.10;;;;;;5036803;28;20156;-86
2021/11/17 05:35:09;;;;;;;30.60;12.00;;;4.20;92.90;;;;;;5036553;28;20293;-86
2021/11/17 05:37:58;;;;;;;28.77;12.13;;;4.20;92.80;;;;;;5037456;28;20493;-86
2021/11/17 05:40:42;;;;;;;35.30;14.83;;;4.20;92.80;;;;;;5036832;28;20172;-86
2021/11/17 05:43:32;;;;;;;25.33;11.53;;;4.20;92.80;;;;;;5020621;28;20164;-85
2021/11/17 05:46:24;;;;;;;38.03;16.07;;;4.20;92.90;;;;;;5036461;28;20255;-86
2021/11/17 05:49:27;;;;;;;39.17;16.83;;;4.20;92.90;;;;;;5020715;28;20258;-86
2021/11/17 05:52:14;;;;;;;36.13;13.40;;;4.20;93.00;;;;;;5054070;28;20168;-87
2021/11/17 05:55:04;;;;;;;36.67;16.23;;;4.20;93.10;;;;;;5020581;28;20572;-87
2021/11/17 05:57:54;;;;;;;35.50;16.97;;;4.30;93.20;;;;;;5036227;28;20169;-86
2021/11/17 06:00:29;;;;;;;33.70;15.07;;;4.30;93.10;;;;;;5036178;28;20165;-86
2021/11/17 06:02:54;;;;;;;36.10;15.93;;;4.20;93.20;;;;;;5036111;28;20195;-86
2021/11/17 06:05:20;;;;;;;39.90;15.67;;;4.30;93.20;;;;;;5036046;28;20236;-86
2021/11/17 06:07:45;;;;;;;32.80;15.13;;;4.20;93.20;;;;;;5035965;28;20180;-86
2021/11/17 06:10:24;;;;;;;44.37;19.23;;;4.20;93.20;;;;;;5035716;28;20180;-86
2021/11/17 06:12:51;;;;;;;44.30;18.23;;;4.30;93.20;;;;;;5036005;28;20168;-86
2021/11/17 06:15:18;;;;;;;48.07;19.07;;;4.30;93.20;;;;;;5035975;28;20576;-86
2021/11/17 06:17:49;;;;;;;46.50;18.90;;;4.30;93.20;;;;;;5053547;28;20168;-86
2021/11/17 06:20:17;;;;;;;43.43;16.33;;;4.30;93.30;;;;;;5036014;28;20517;-86
2021/11/17 06:22:47;;;;;;;41.27;16.23;;;4.30;93.30;;;;;;5053609;28;20165;-85
2021/11/17 06:25:14;;;;;;;37.00;15.57;;;4.30;93.30;;;;;;5053347;28;20571;-85
2021/11/17 06:27:47;;;;;;;50.83;20.03;;;4.30;93.30;;;;;;5035582;28;20194;-85
2021/11/17 06:30:16;;;;;;;46.73;18.70;;;4.30;93.30;;;;;;5053716;28;20607;-85
2021/11/17 06:32:42;;;;;;;43.63;18.57;;;4.30;93.40;;;;;;5035408;28;20180;-85
2021/11/17 06:35:10;;;;;;;48.87;21.73;;;4.30;93.40;;;;;;5035113;28;20211;-85
2021/11/17 06:37:36;;;;;;;58.43;22.17;;;4.30;93.40;;;;;;5053355;28;20162;-85
2021/11/17 06:40:05;;;;;;;51.93;23.23;;;4.30;93.40;;;;;;5035625;28;20222;-86
2021/11/17 06:42:36;;;;;;;58.67;22.77;;;4.30;93.40;;;;;;5035183;28;20202;-86
2021/11/17 06:45:07;;;;;;;43.43;18.57;;;4.30;93.30;;;;;;5053145;28;20219;-86
2021/11/17 06:47:33;;;;;;;45.73;19.63;;;4.40;93.40;;;;;;5053095;28;20268;-86
2021/11/17 06:49:59;;;;;;;38.00;15.73;;;4.30;93.50;;;;;;5053128;28;20251;-84
2021/11/17 06:52:24;;;;;;;50.97;22.57;;;4.40;93.50;;;;;;5035242;28;20547;-86
2021/11/17 06:54:50;;;;;;;61.77;24.73;;;4.40;93.60;;;;;;5035000;28;20228;-86
2021/11/17 06:57:18;;;;;;;58.27;23.53;;;4.40;93.60;;;;;;5035073;28;20729;-86
2021/11/17 06:59:45;;;;;;;53.13;22.83;;;4.40;93.60;;;;;;5034942;28;20175;-86
2021/11/17 07:02:11;;;;;;;66.07;26.67;;;4.40;93.60;;;;;;5035189;28;20269;-86
2021/11/17 07:04:37;;;;;;;64.67;27.43;;;4.50;93.70;;;;;;5034904;28;20323;-85
2021/11/17 07:07:05;;;;;;;70.07;30.40;;;4.50;93.60;;;;;;5034996;28;20172;-86
2021/11/17 07:09:31;;;;;;;71.30;28.57;;;4.50;93.60;;;;;;5052757;28;20250;-86
2021/11/17 07:11:57;;;;;;;71.33;31.03;;;4.50;93.60;;;;;;5053103;28;20314;-86
2021/11/17 07:14:22;;;;;;;61.37;26.93;;;4.60;93.60;;;;;;5052730;28;20191;-87
2021/11/17 07:16:49;;;;;;;54.17;22.93;;;4.50;93.60;;;;;;5052774;28;20687;-86
2021/11/17 07:19:16;;;;;;;66.83;27.23;;;4.60;93.60;;;;;;5034876;28;20536;-86
2021/11/17 07:21:43;;;;;;;52.40;22.60;;;4.60;93.60;;;;;;5034899;28;20210;-87
2021/11/17 07:24:10;;;;;;;79.70;34.43;;;4.60;93.60;;;;;;5038744;28;20196;-85
2021/11/17 07:26:36;;;;;;;65.40;28.67;;;4.60;93.70;;;;;;5056647;28;20640;-85
2021/11/17 07:29:02;;;;;;;76.73;30.53;;;4.70;93.70;;;;;;5038720;28;20191;-85
2021/11/17 07:31:27;;;;;;;81.80;34.93;;;4.70;93.70;;;;;;5056528;28;20176;-85
2021/11/17 07:33:53;;;;;;;78.23;33.00;;;4.70;93.70;;;;;;5056499;28;20230;-86
2021/11/17 07:36:21;;;;;;;73.23;30.07;;;4.70;93.70;;;;;;5038552;28;20197;-86
2021/11/17 07:38:46;;;;;;;74.47;27.53;;;4.70;93.70;;;;;;5038535;28;20200;-85
2021/11/17 07:41:12;;;;;;;81.00;32.73;;;4.80;93.70;;;;;;5038564;28;20211;-85
2021/11/17 07:43:38;;;;;;;54.93;22.33;;;4.80;93.80;;;;;;5056299;28;20176;-85
2021/11/17 07:46:04;;;;;;;67.17;27.93;;;4.80;93.90;;;;;;5038463;28;20180;-85
2021/11/17 07:48:31;;;;;;;53.23;23.33;;;4.80;93.80;;;;;;5038391;28;20181;-85
2021/11/17 07:50:58;;;;;;;71.37;31.10;;;4.90;93.80;;;;;;5057173;28;20176;-87
2021/11/17 07:53:25;;;;;;;68.03;27.50;;;4.90;93.80;;;;;;5040142;28;20180;-88
2021/11/17 07:55:53;;;;;;;79.60;31.60;;;4.90;93.80;;;;;;5057823;28;20237;-88
2021/11/17 07:58:22;;;;;;;54.60;22.50;;;4.90;93.80;;;;;;5039828;28;20560;-88
2021/11/17 08:00:54;;;;;;;70.93;27.03;;;4.90;93.80;;;;;;5058367;28;20169;-89
2021/11/17 08:03:22;;;;;;;65.30;28.33;;;4.90;93.80;;;;;;5057752;28;20169;-86
2021/11/17 08:05:50;;;;;;;62.60;27.00;;;5.00;93.80;;;;;;5057203;28;20204;-88
2021/11/17 08:08:17;;;;;;;80.57;29.53;;;5.00;93.80;;;;;;5057767;28;20184;-87
2021/11/17 08:10:43;;;;;;;66.87;28.50;;;4.90;93.90;;;;;;5039667;28;20176;-86
2021/11/17 08:13:09;;;;;;;51.10;20.20;;;5.00;94.00;;;;;;5039736;28;20184;-88
2021/11/17 08:15:35;;;;;;;56.87;23.27;;;5.00;94.10;;;;;;5039160;28;20263;-87
2021/11/17 08:18:01;;;;;;;63.27;23.67;;;5.00;94.20;;;;;;5039529;28;20181;-88
2021/11/17 08:20:27;;;;;;;64.13;24.23;;;5.00;94.30;;;;;;5039470;28;20195;-86
2021/11/17 08:22:55;;;;;;;47.57;18.50;;;5.00;94.40;;;;;;5039447;28;20553;-87
2021/11/17 08:25:24;;;;;;;68.03;23.03;;;5.00;94.40;;;;;;5056851;28;20235;-85
2021/11/17 08:27:50;;;;;;;62.13;23.83;;;5.00;94.50;;;;;;5057943;28;20645;-88
2021/11/17 08:30:18;;;;;;;64.53;26.00;;;5.00;94.50;;;;;;5040508;28;20185;-88
2021/11/17 08:32:44;;;;;;;54.87;23.27;;;5.10;94.50;;;;;;5039064;28;20616;-86
2021/11/17 08:35:13;;;;;;;66.73;25.50;;;5.10;94.50;;;;;;5039365;28;20232;-88
2021/11/17 08:37:38;;;;;;;74.00;27.00;;;5.10;94.40;;;;;;5057678;28;20171;-87
2021/11/17 08:40:11;;;;;;;51.43;19.33;;;5.10;94.40;;;;;;5057328;28;20177;-89
2021/11/17 08:42:38;;;;;;;58.90;20.10;;;5.10;94.40;;;;;;5039555;28;20247;-86
2021/11/17 08:45:04;;;;;;;70.47;28.23;;;5.20;94.50;;;;;;5038794;28;20683;-87
2021/11/17 08:47:30;;;;;;;51.80;17.43;;;5.30;94.50;;;;;;5057011;28;20256;-86
2021/11/17 08:49:56;;;;;;;69.07;26.83;;;5.20;94.50;;;;;;5039174;28;20624;-87
2021/11/17 08:52:22;;;;;;;69.03;25.90;;;5.30;94.60;;;;;;5038903;28;20188;-86
2021/11/17 08:54:48;;;;;;;75.43;27.03;;;5.30;94.60;;;;;;5038537;28;20733;-87
2021/11/17 08:57:16;;;;;;;61.00;23.07;;;5.30;94.70;;;;;;5038953;28;20274;-86
2021/11/17 08:59:45;;;;;;;47.40;20.90;;;5.30;94.70;;;;;;5038754;28;20231;-88
2021/11/17 09:02:11;;;;;;;43.60;18.37;;;5.30;94.60;;;;;;5056535;28;20170;-86
2021/11/17 09:04:37;;;;;;;71.90;23.40;;;5.30;94.60;;;;;;5056571;28;20193;-86
2021/11/17 09:07:03;;;;;;;58.90;20.57;;;5.50;94.60;;;;;;5038682;28;20241;-87
2021/11/17 09:09:29;;;;;;;64.47;25.90;;;5.50;94.50;;;;;;5056483;28;20188;-88
2021/11/17 09:11:55;;;;;;;61.73;21.13;;;5.50;94.50;;;;;;5056020;28;20178;-89
2021/11/17 09:14:21;;;;;;;68.93;26.20;;;5.50;94.50;;;;;;5037963;28;20202;-86
2021/11/17 09:16:47;;;;;;;68.37;25.17;;;5.50;94.50;;;;;;5037744;28;20209;-86
2021/11/17 09:19:13;;;;;;;56.03;21.63;;;5.50;94.40;;;;;;5055807;28;20175;-87
2021/11/17 09:21:41;;;;;;;79.13;26.13;;;5.60;94.40;;;;;;5056062;28;20267;-89
2021/11/17 09:24:09;;;;;;;67.40;27.17;;;5.60;94.40;;;;;;5037995;28;20288;-86
2021/11/17 09:26:36;;;;;;;66.53;25.23;;;5.60;94.40;;;;;;5056489;28;20255;-87
2021/11/17 09:29:03;;;;;;;69.97;27.53;;;5.70;94.30;;;;;;5056507;28;20536;-87
2021/11/17 09:31:31;;;;;;;64.03;23.40;;;5.70;94.30;;;;;;5056196;28;20262;-86
2021/11/17 09:33:56;;;;;;;58.70;22.20;;;5.70;94.20;;;;;;5037632;28;20269;-88
2021/11/17 09:36:25;;;;;;;72.07;27.43;;;5.80;94.20;;;;;;5055608;28;20223;-87
2021/11/17 09:38:54;;;;;;;74.33;30.00;;;5.80;94.20;;;;;;5055003;28;20189;-87
2021/11/17 09:41:29;;;;;;;82.47;31.50;;;5.80;94.20;;;;;;5037511;28;20204;-87
2021/11/17 09:44:05;;;;;;;78.73;28.67;;;5.80;94.30;;;;;;5037263;28;20244;-88
2021/11/17 09:46:32;;;;;;;60.50;23.80;;;5.80;94.30;;;;;;5036697;28;20645;-85
2021/11/17 09:49:19;;;;;;;52.60;20.97;;;5.80;94.40;;;;;;5055861;28;20187;-87
2021/11/17 09:51:50;;;;;;;63.37;26.47;;;5.90;94.40;;;;;;5036879;28;20191;-89
2021/11/17 09:54:27;;;;;;;69.83;27.27;;;6.00;94.40;;;;;;5055738;28;20190;-85
2021/11/17 09:57:03;;;;;;;54.13;22.03;;;6.00;94.40;;;;;;5037446;28;20195;-86
2021/11/17 09:59:43;;;;;;;65.23;27.93;;;6.00;94.40;;;;;;5036350;28;20559;-86
2021/11/17 10:02:33;;;;;;;50.60;21.10;;;6.00;94.30;;;;;;5053820;28;20198;-85
2021/11/17 10:05:30;;;;;;;63.37;26.10;;;6.00;94.40;;;;;;5054933;28;20589;-87
2021/11/17 10:14:04;;;;;;;77.77;26.57;;;6.10;94.50;;;;;;5055186;28;20185;-87
2021/11/17 10:16:31;;;;;;;61.33;24.67;;;6.10;94.70;;;;;;5055403;28;20187;-86
2021/11/17 10:19:26;;;;;;;47.40;17.93;;;6.10;94.70;;;;;;5055154;28;20170;-88
2021/11/17 10:21:59;;;;;;;45.67;16.60;;;6.20;94.60;;;;;;5054786;28;20749;-86
2021/11/17 10:24:43;;;;;;;58.33;22.93;;;6.20;94.70;;;;;;5036071;28;20209;-86
2021/11/17 10:27:12;;;;;;;45.33;18.70;;;6.30;94.70;;;;;;5035821;28;20171;-87
2021/11/17 10:29:41;;;;;;;67.63;28.43;;;6.30;94.60;;;;;;5036211;28;20578;-88
2021/11/17 10:32:18;;;;;;;93.70;34.77;;;6.30;94.60;;;;;;5036152;28;20182;-86
2021/11/17 10:35:11;;;;;;;89.20;35.87;;;6.40;94.60;;;;;;5035759;28;20241;-86
2021/11/17 10:37:58;;;;;;;80.03;33.57;;;6.40;94.50;;;;;;5035968;28;20174;-86
2021/11/17 10:40:28;;;;;;;84.50;32.77;;;6.40;94.60;;;;;;5036008;28;20706;-86
2021/11/17 10:43:00;;;;;;;85.63;31.60;;;6.40;94.60;;;;;;5035689;28;20186;-86
2021/11/17 10:45:46;;;;;;;104.13;36.00;;;6.40;94.70;;;;;;5053515;28;20205;-86
2021/11/17 10:48:33;;;;;;;68.70;27.43;;;6.50;94.80;;;;;;5035563;28;20198;-87
2021/11/17 10:51:10;;;;;;;87.77;34.20;;;6.50;94.80;;;;;;5053913;28;20187;-86
2021/11/17 10:53:37;;;;;;;98.10;38.37;;;6.50;94.90;;;;;;5054502;28;20614;-87
2021/11/17 10:56:10;;;;;;;90.67;34.27;;;6.50;94.90;;;;;;5035497;28;20213;-86
2021/11/17 10:58:43;;;;;;;78.50;29.10;;;6.60;94.90;;;;;;5036123;28;20229;-88
2021/11/17 11:01:17;;;;;;;76.60;28.13;;;6.60;94.90;;;;;;5035951;28;20168;-87
2021/11/17 11:03:57;;;;;;;95.97;35.97;;;6.60;94.90;;;;;;5054088;28;20168;-87
2021/11/17 11:06:46;;;;;;;93.83;32.67;;;6.70;94.90;;;;;;5037672;28;20628;-88
2021/11/17 11:09:23;;;;;;;98.03;37.47;;;6.70;94.90;;;;;;5038637;28;20595;-89
2021/11/17 11:11:52;;;;;;;103.97;35.40;;;6.80;94.90;;;;;;5056407;28;20168;-90
2021/11/17 11:14:53;;;;;;;94.20;36.63;;;6.80;94.90;;;;;;5039057;28;20291;-87
2021/11/17 11:17:27;;;;;;;100.03;35.80;;;6.80;94.90;;;;;;5038032;28;20273;-89
2021/11/17 11:20:16;;;;;;;98.33;35.90;;;6.90;94.90;;;;;;5038217;28;20539;-88
2021/11/17 11:23:06;;;;;;;100.40;35.87;;;7.00;95.00;;;;;;5026552;28;20241;-89
2021/11/17 11:25:49;;;;;;;98.17;38.23;;;7.10;95.00;;;;;;5055557;28;20234;-89
2021/11/17 11:28:21;;;;;;;84.30;32.00;;;7.10;94.90;;;;;;5038516;28;20233;-89
2021/11/17 11:31:03;;;;;;;107.17;40.07;;;7.20;94.90;;;;;;5053880;28;20176;-87
2021/11/17 11:33:35;;;;;;;98.60;34.80;;;7.20;94.80;;;;;;5053598;28;20172;-86
2021/11/17 11:36:10;;;;;;;87.93;36.47;;;7.30;94.70;;;;;;5053618;28;20239;-86
2021/11/17 11:38:45;;;;;;;97.20;33.37;;;7.40;94.60;;;;;;5035560;28;20541;-87
2021/11/17 11:41:29;;;;;;;96.37;37.23;;;7.40;94.50;;;;;;5035629;28;20164;-86
2021/11/17 11:44:16;;;;;;;64.77;25.50;;;7.40;94.50;;;;;;5053660;28;20206;-87
2021/11/17 11:46:43;;;;;;;87.23;32.27;;;7.40;94.40;;;;;;5036158;28;20279;-86
2021/11/17 11:49:31;;;;;;;76.80;28.87;;;7.40;94.30;;;;;;5035786;28;20184;-87
2021/11/17 11:52:12;;;;;;;82.43;31.67;;;7.50;94.40;;;;;;5036751;28;20537;-86
2021/11/17 11:54:55;;;;;;;72.00;27.97;;;7.50;94.40;;;;;;5035606;28;20199;-86
2021/11/17 11:57:27;;;;;;;80.70;34.03;;;7.60;94.40;;;;;;5053514;28;20263;-86
2021/11/17 11:59:59;;;;;;;78.00;31.57;;;7.60;94.30;;;;;;5035455;28;20655;-86
2021/11/17 12:02:27;;;;;;;81.03;29.17;;;7.70;94.10;;;;;;5035377;28;20267;-86
2021/11/17 12:04:57;;;;;;;77.73;32.13;;;7.70;94.20;;;;;;5053166;28;20224;-87
2021/11/17 12:07:27;;;;;;;72.90;28.03;;;7.80;94.00;;;;;;5053224;28;20210;-87
2021/11/17 12:09:55;;;;;;;79.20;31.47;;;7.90;93.90;;;;;;5056070;28;20179;-87
2021/11/17 12:12:27;;;;;;;67.50;28.13;;;8.20;94.00;;;;;;5038697;28;20590;-87
2021/11/17 12:15:11;;;;;;;75.43;29.77;;;8.40;93.70;;;;;;5056918;28;20226;-85
2021/11/17 12:17:37;;;;;;;69.87;30.47;;;8.40;93.40;;;;;;5056428;28;20164;-86
2021/11/17 12:20:21;;;;;;;76.57;32.47;;;8.30;93.20;;;;;;5038565;28;20222;-86
2021/11/17 12:22:51;;;;;;;64.57;29.70;;;8.40;93.30;;;;;;5038538;28;20169;-85
2021/11/17 12:25:31;;;;;;;61.97;27.77;;;8.30;93.20;;;;;;5038335;28;20203;-86
2021/11/17 12:28:10;;;;;;;63.03;27.20;;;8.50;93.30;;;;;;5038379;28;20176;-85
2021/11/17 12:30:55;;;;;;;58.67;28.07;;;8.50;93.10;;;;;;5056032;28;20245;-85
2021/11/17 12:33:47;;;;;;;55.67;25.47;;;8.50;92.90;;;;;;5056138;28;20532;-86
2021/11/17 12:36:13;;;;;;;53.17;25.37;;;8.50;92.90;;;;;;5038137;28;20583;-86
2021/11/17 12:38:40;;;;;;;51.13;23.33;;;8.50;92.60;;;;;;5056423;28;20306;-87
2021/11/17 12:41:08;;;;;;;55.43;23.57;;;8.50;92.30;;;;;;5055867;28;20172;-86
2021/11/17 12:43:57;;;;;;;44.00;20.97;;;8.40;92.30;;;;;;5055893;28;20234;-86
2021/11/17 12:46:35;;;;;;;53.00;24.60;;;8.40;92.30;;;;;;5038029;28;20207;-85
2021/11/17 12:49:43;;;;;;;47.10;23.33;;;8.40;92.30;;;;;;5038141;28;20202;-86
2021/11/17 12:52:41;;;;;;;43.60;20.20;;;8.40;92.10;;;;;;5030285;28;20191;-85
2021/11/17 12:55:09;;;;;;;44.90;21.60;;;8.50;92.00;;;;;;5055322;28;20298;-85
2021/11/17 12:57:43;;;;;;;50.53;22.87;;;8.50;91.90;;;;;;5056265;28;20172;-85
2021/11/17 13:00:12;;;;;;;51.03;22.23;;;8.50;92.00;;;;;;5038109;28;20187;-86
2021/11/17 13:02:54;;;;;;;46.83;25.07;;;8.60;92.10;;;;;;5038554;28;20602;-85
2021/11/17 13:05:25;;;;;;;53.27;24.13;;;8.60;92.10;;;;;;5055467;28;20196;-86
2021/11/17 13:08:19;;;;;;;40.30;20.97;;;8.60;92.10;;;;;;5037773;28;20172;-85
2021/11/17 13:10:50;;;;;;;44.87;22.20;;;8.70;92.10;;;;;;5053460;28;20195;-86
2021/11/17 13:13:18;;;;;;;51.27;24.43;;;8.80;91.90;;;;;;5037900;28;20591;-85
2021/11/17 13:16:29;;;;;;;51.97;24.47;;;9.00;91.80;;;;;;5055172;28;20290;-86
2021/11/17 13:19:01;;;;;;;47.97;21.10;;;9.00;91.60;;;;;;5034079;28;20194;-85
2021/11/17 13:21:34;;;;;;;53.23;24.30;;;8.90;91.50;;;;;;5037849;28;20176;-85
2021/11/17 13:23:59;;;;;;;46.83;22.77;;;8.90;91.50;;;;;;5055164;28;20275;-85
2021/11/17 13:26:40;;;;;;;57.87;25.73;;;8.90;91.40;;;;;;5037316;28;20229;-85
2021/11/17 13:29:28;;;;;;;51.43;23.07;;;8.90;91.50;;;;;;5055115;28;20203;-85
2021/11/17 13:32:03;;;;;;;51.70;23.83;;;8.80;91.50;;;;;;5037168;28;20172;-85
2021/11/17 13:34:40;;;;;;;46.30;23.13;;;8.80;91.50;;;;;;5054645;28;20211;-85
2021/11/17 13:37:24;;;;;;;52.33;25.37;;;8.80;91.50;;;;;;5036840;28;20230;-85
2021/11/17 13:39:55;;;;;;;59.50;27.10;;;8.80;91.50;;;;;;5054947;28;20156;-85
2021/11/17 13:42:22;;;;;;;47.00;21.80;;;8.80;91.90;;;;;;5036671;28;20579;-85
2021/11/17 13:44:48;;;;;;;50.33;24.87;;;8.80;92.30;;;;;;5037359;28;20202;-85
2021/11/17 13:47:17;;;;;;;58.87;27.07;;;8.80;92.40;;;;;;5054725;28;20258;-85
2021/11/17 13:49:46;;;;;;;51.80;25.63;;;8.80;92.20;;;;;;5036595;28;20241;-85
2021/11/17 13:52:15;;;;;;;61.87;24.40;;;8.70;92.10;;;;;;5036737;28;20219;-85
2021/11/17 13:54:41;;;;;;;56.07;23.97;;;8.70;92.20;;;;;;5036701;28;20226;-84
2021/11/17 13:57:09;;;;;;;57.90;24.77;;;8.60;92.20;;;;;;5036640;28;20208;-84
2021/11/17 13:59:35;;;;;;;54.17;23.47;;;8.60;92.20;;;;;;5055026;28;20553;-86
2021/11/17 14:02:01;;;;;;;58.33;24.77;;;8.60;92.20;;;;;;5054536;28;20206;-85
2021/11/17 14:04:27;;;;;;;59.53;25.37;;;8.60;92.10;;;;;;5054441;28;20208;-85
2021/11/17 14:06:56;;;;;;;57.20;26.20;;;8.70;92.20;;;;;;5036496;28;20191;-87
2021/11/17 14:09:22;;;;;;;56.77;26.93;;;8.80;92.20;;;;;;5036278;28;20180;-84
2021/11/17 14:11:48;;;;;;;59.23;25.93;;;8.80;92.20;;;;;;5036571;28;20203;-85
2021/11/17 14:14:14;;;;;;;69.97;26.80;;;8.80;92.30;;;;;;5054303;28;20204;-85
2021/11/17 14:16:39;;;;;;;57.77;24.50;;;8.90;92.20;;;;;;5036048;28;20257;-86
2021/11/17 14:19:06;;;;;;;59.03;26.17;;;9.00;92.10;;;;;;5036371;28;20186;-85
2021/11/17 14:21:42;;;;;;;58.23;24.73;;;9.10;92.10;;;;;;5036915;28;20187;-85
2021/11/17 14:24:12;;;;;;;58.67;23.67;;;9.10;91.90;;;;;;5036686;28;20206;-84
2021/11/17 14:26:46;;;;;;;61.20;24.90;;;9.10;91.70;;;;;;5037246;28;20176;-84
2021/11/17 14:29:19;;;;;;;55.73;23.07;;;9.10;91.50;;;;;;5036615;28;20219;-84
2021/11/17 14:31:50;;;;;;;57.60;23.23;;;9.10;91.20;;;;;;5054480;28;20592;-84
2021/11/17 14:34:15;;;;;;;55.23;21.33;;;9.00;91.10;;;;;;5054248;28;20212;-84
2021/11/17 14:36:52;;;;;;;52.20;22.70;;;8.90;91.30;;;;;;5054657;28;20208;-84
2021/11/17 14:39:21;;;;;;;51.20;23.43;;;8.90;91.40;;;;;;5036268;28;20188;-84
2021/11/17 14:41:50;;;;;;;56.73;21.40;;;8.80;91.50;;;;;;5037639;28;20176;-84
2021/11/17 14:44:16;;;;;;;59.93;24.43;;;8.90;91.60;;;;;;5054469;28;20659;-84
2021/11/17 14:46:42;;;;;;;47.33;23.03;;;8.80;91.50;;;;;;5054282;28;20225;-83
2021/11/17 14:49:10;;;;;;;56.13;22.50;;;8.80;91.50;;;;;;5036746;28;20553;-83
2021/11/17 14:51:36;;;;;;;48.50;21.70;;;8.70;91.70;;;;;;5036977;28;20183;-85
2021/11/17 14:54:01;;;;;;;51.53;23.47;;;8.70;91.60;;;;;;5054862;28;20572;-84
2021/11/17 14:56:27;;;;;;;58.17;23.63;;;8.60;91.70;;;;;;5037818;28;20211;-84
2021/11/17 14:58:53;;;;;;;54.93;24.43;;;8.70;91.70;;;;;;5037841;28;20176;-84
2021/11/17 15:01:23;;;;;;;50.23;23.37;;;8.70;91.80;;;;;;5037198;28;20648;-84
2021/11/17 15:03:50;;;;;;;53.67;23.50;;;8.80;91.80;;;;;;5037097;28;20172;-84
2021/11/17 15:06:17;;;;;;;52.93;22.67;;;8.80;91.90;;;;;;5055647;28;20217;-84
2021/11/17 15:08:44;;;;;;;52.50;22.93;;;8.80;91.80;;;;;;5055332;28;20183;-85
2021/11/17 15:11:10;;;;;;;49.63;20.63;;;8.80;91.80;;;;;;5038693;28;20176;-84
2021/11/17 15:13:39;;;;;;;62.57;22.03;;;8.80;91.80;;;;;;5057531;28;20178;-84
2021/11/17 15:16:09;;;;;;;43.80;19.20;;;8.80;91.60;;;;;;5059744;28;20223;-85
2021/11/17 15:18:46;;;;;;;48.50;17.10;;;8.70;91.70;;;;;;5060191;28;20220;-84
2021/11/17 15:21:16;;;;;;;38.10;13.97;;;8.70;91.40;;;;;;5041457;28;20251;-84
2021/11/17 15:23:45;;;;;;;27.47;10.10;;;8.60;91.10;;;;;;5040620;28;20187;-84
2021/11/17 15:26:14;;;;;;;28.03;9.23;;;8.60;90.40;;;;;;5037428;28;20182;-85
2021/11/17 15:28:48;;;;;;;32.37;9.80;;;8.50;89.60;;;;;;5036925;28;20186;-86
2021/11/17 15:31:18;;;;;;;23.93;8.43;;;8.50;89.20;;;;;;5055019;28;20160;-84
2021/11/17 15:33:47;;;;;;;26.10;9.33;;;8.50;88.70;;;;;;5056256;28;20160;-84
2021/11/17 15:36:19;;;;;;;27.50;9.27;;;8.50;88.80;;;;;;5038907;28;20196;-85
2021/11/17 15:38:47;;;;;;;21.10;8.47;;;8.40;88.70;;;;;;5056628;28;20663;-84
2021/11/17 15:41:17;;;;;;;30.07;8.87;;;8.30;88.60;;;;;;5055834;28;20172;-84
2021/11/17 15:43:45;;;;;;;29.50;9.30;;;8.30;89.00;;;;;;5057778;28;20172;-85
2021/11/17 15:46:10;;;;;;;25.90;10.57;;;8.30;89.10;;;;;;5056970;28;20180;-85
2021/11/17 15:48:36;;;;;;;28.77;12.07;;;8.30;89.50;;;;;;5040916;28;20172;-84
2021/11/17 15:51:13;;;;;;;31.33;12.87;;;8.30;90.00;;;;;;5058924;28;20644;-85